This is the latest recevied weather packets stored in our database for station/object TG9ADI-20. If no packets are shown the sender has not sent any weather packets the latest 10 day(s).
| Time | Temp. | Humidity | Pressure | Rain* | Wind** | Luminosity | Snow |
|---|---|---|---|---|---|---|---|
| 1777739137 | 24.44° C | 50% | 1014 hPa | 0 mm | - | - | - |
| 1777738536 | 24.44° C | 50% | 1015 hPa | 0 mm | - | - | - |
| 1777737936 | 22.78° C | 56% | 1014 hPa | 0 mm | - | - | - |
| 1777737335 | 22.78° C | 56% | 1014 hPa | 0 mm | - | - | - |
| 1777736735 | 22.78° C | 56% | 1014 hPa | 0 mm | - | - | - |
| 1777736134 | 22.78° C | 56% | 1014 hPa | 0 mm | - | - | - |
| 1777735533 | 22.78° C | 56% | 1015 hPa | 0 mm | - | - | - |
| 1777734932 | 22.78° C | 56% | 1015 hPa | 0 mm | - | - | - |
| 1777734332 | 22.78° C | 56% | 1015 hPa | 0 mm | - | - | - |
| 1777733731 | 20.56° C | 68% | 1014 hPa | 0 mm | - | - | - |
| 1777733130 | 20.56° C | 68% | 1014 hPa | 0 mm | - | - | - |
| 1777732530 | 20.56° C | 68% | 1014 hPa | 0 mm | - | - | - |
| 1777731929 | 20.56° C | 68% | 1015 hPa | 0 mm | - | - | - |
| 1777731328 | 20.56° C | 68% | 1015 hPa | 0 mm | - | - | - |
| 1777730728 | 20.56° C | 68% | 1015 hPa | 0 mm | - | - | - |
| 1777730127 | 18.89° C | 82% | 1014 hPa | 0 mm | - | - | - |
| 1777729527 | 18.89° C | 82% | 1014 hPa | 0 mm | - | - | - |
| 1777728926 | 17.78° C | 83% | 1014 hPa | 0 mm | - | - | - |
| 1777728325 | 18.33° C | 88% | 1015 hPa | 0 mm | - | - | - |
| 1777727725 | 18.33° C | 90% | 1015 hPa | 0 mm | - | - | - |
| 1777727124 | 18.89° C | 82% | 1015 hPa | 0 mm | - | - | - |
| 1777726523 | 16.67° C | 94% | 1014 hPa | 0 mm | - | - | - |
| 1777725923 | 16.67° C | 94% | 1014 hPa | 0 mm | - | - | - |
| 1777725322 | 16.11° C | 96% | 1014 hPa | 0 mm | - | - | - |
| 1777724722 | 16.11° C | 96% | 1014 hPa | 0 mm | - | - | - |
* Rain latest hour (hover to see other rain measurements)
** Current wind speed in m/s (hover to see current wind gust speed)